sensor_id;sensor_type;location;lat;lon;timestamp;P1;durP1;ratioP1;P2;durP2;ratioP2
38083;SDS011;23894;51.466;7.444;2022-08-21T00:03:31;10.25;;;5.20;;
38083;SDS011;23894;51.466;7.444;2022-08-21T00:05:35;9.32;;;5.32;;
38083;SDS011;23894;51.466;7.444;2022-08-21T00:07:36;10.52;;;5.22;;
38083;SDS011;23894;51.466;7.444;2022-08-21T00:11:38;13.68;;;5.63;;
38083;SDS011;23894;51.466;7.444;2022-08-21T00:13:39;12.82;;;5.35;;
38083;SDS011;23894;51.466;7.444;2022-08-21T00:17:41;10.80;;;5.38;;
38083;SDS011;23894;51.466;7.444;2022-08-21T00:23:44;9.20;;;4.97;;
38083;SDS011;23894;51.466;7.444;2022-08-21T00:27:46;9.07;;;4.85;;
38083;SDS011;23894;51.466;7.444;2022-08-21T00:29:48;10.40;;;5.72;;
38083;SDS011;23894;51.466;7.444;2022-08-21T00:33:50;11.95;;;5.45;;
38083;SDS011;23894;51.466;7.444;2022-08-21T00:35:51;10.73;;;5.70;;
38083;SDS011;23894;51.466;7.444;2022-08-21T00:39:53;12.15;;;4.90;;
38083;SDS011;23894;51.466;7.444;2022-08-21T00:43:55;9.65;;;5.20;;
38083;SDS011;23894;51.466;7.444;2022-08-21T00:45:57;8.57;;;4.40;;
38083;SDS011;23894;51.466;7.444;2022-08-21T00:47:58;9.23;;;4.97;;
38083;SDS011;23894;51.466;7.444;2022-08-21T00:49:59;11.88;;;5.10;;
38083;SDS011;23894;51.466;7.444;2022-08-21T00:54:02;11.30;;;5.68;;
38083;SDS011;23894;51.466;7.444;2022-08-21T00:56:03;11.27;;;5.10;;
38083;SDS011;23894;51.466;7.444;2022-08-21T00:58:06;10.50;;;5.03;;
38083;SDS011;23894;51.466;7.444;2022-08-21T01:00:10;12.25;;;5.90;;
38083;SDS011;23894;51.466;7.444;2022-08-21T01:02:12;11.75;;;5.28;;
38083;SDS011;23894;51.466;7.444;2022-08-21T01:04:13;12.10;;;5.68;;
38083;SDS011;23894;51.466;7.444;2022-08-21T01:06:16;12.00;;;6.40;;
38083;SDS011;23894;51.466;7.444;2022-08-21T01:08:17;12.18;;;6.53;;
38083;SDS011;23894;51.466;7.444;2022-08-21T01:10:19;15.30;;;6.28;;
38083;SDS011;23894;51.466;7.444;2022-08-21T01:12:20;14.02;;;6.80;;
38083;SDS011;23894;51.466;7.444;2022-08-21T01:16:22;9.93;;;5.57;;
38083;SDS011;23894;51.466;7.444;2022-08-21T01:18:23;10.85;;;5.97;;
38083;SDS011;23894;51.466;7.444;2022-08-21T01:20:25;12.25;;;6.53;;
38083;SDS011;23894;51.466;7.444;2022-08-21T01:24:27;11.80;;;7.35;;
38083;SDS011;23894;51.466;7.444;2022-08-21T01:28:30;11.93;;;6.03;;
38083;SDS011;23894;51.466;7.444;2022-08-21T01:30:32;10.73;;;6.53;;
38083;SDS011;23894;51.466;7.444;2022-08-21T01:32:35;12.40;;;6.45;;
38083;SDS011;23894;51.466;7.444;2022-08-21T01:36:37;12.95;;;7.03;;
38083;SDS011;23894;51.466;7.444;2022-08-21T01:40:39;11.70;;;6.65;;
38083;SDS011;23894;51.466;7.444;2022-08-21T01:44:41;10.70;;;6.22;;
38083;SDS011;23894;51.466;7.444;2022-08-21T01:46:42;13.07;;;6.72;;
38083;SDS011;23894;51.466;7.444;2022-08-21T01:50:44;12.43;;;7.47;;
38083;SDS011;23894;51.466;7.444;2022-08-21T01:54:46;15.85;;;6.75;;
38083;SDS011;23894;51.466;7.444;2022-08-21T01:58:48;11.00;;;6.13;;
38083;SDS011;23894;51.466;7.444;2022-08-21T02:00:49;13.60;;;7.55;;
38083;SDS011;23894;51.466;7.444;2022-08-21T02:04:51;11.55;;;7.05;;
38083;SDS011;23894;51.466;7.444;2022-08-21T02:08:53;12.52;;;7.32;;
38083;SDS011;23894;51.466;7.444;2022-08-21T02:10:54;13.88;;;7.07;;
38083;SDS011;23894;51.466;7.444;2022-08-21T02:14:56;16.20;;;7.63;;
38083;SDS011;23894;51.466;7.444;2022-08-21T02:16:57;12.77;;;7.90;;
38083;SDS011;23894;51.466;7.444;2022-08-21T02:20:59;13.23;;;7.88;;
38083;SDS011;23894;51.466;7.444;2022-08-21T02:25:02;11.45;;;7.65;;
38083;SDS011;23894;51.466;7.444;2022-08-21T02:27:03;12.60;;;7.70;;
38083;SDS011;23894;51.466;7.444;2022-08-21T02:29:04;14.20;;;8.02;;
38083;SDS011;23894;51.466;7.444;2022-08-21T02:33:07;13.68;;;7.53;;
38083;SDS011;23894;51.466;7.444;2022-08-21T02:35:10;12.05;;;7.95;;
38083;SDS011;23894;51.466;7.444;2022-08-21T02:37:11;12.77;;;7.53;;
38083;SDS011;23894;51.466;7.444;2022-08-21T02:39:12;11.65;;;7.95;;
38083;SDS011;23894;51.466;7.444;2022-08-21T02:43:15;11.68;;;6.97;;
38083;SDS011;23894;51.466;7.444;2022-08-21T02:45:17;14.73;;;7.68;;
38083;SDS011;23894;51.466;7.444;2022-08-21T02:47:18;12.60;;;7.93;;
38083;SDS011;23894;51.466;7.444;2022-08-21T02:51:20;13.15;;;8.05;;
38083;SDS011;23894;51.466;7.444;2022-08-21T02:53:22;15.60;;;8.20;;
38083;SDS011;23894;51.466;7.444;2022-08-21T02:55:25;14.70;;;8.27;;
38083;SDS011;23894;51.466;7.444;2022-08-21T02:57:26;14.15;;;7.85;;
38083;SDS011;23894;51.466;7.444;2022-08-21T03:01:28;15.20;;;8.35;;
38083;SDS011;23894;51.466;7.444;2022-08-21T03:05:31;12.65;;;7.68;;
38083;SDS011;23894;51.466;7.444;2022-08-21T03:07:32;15.65;;;8.48;;
38083;SDS011;23894;51.466;7.444;2022-08-21T03:09:34;13.68;;;8.65;;
38083;SDS011;23894;51.466;7.444;2022-08-21T03:11:35;16.40;;;8.70;;
38083;SDS011;23894;51.466;7.444;2022-08-21T03:13:36;13.32;;;8.23;;
38083;SDS011;23894;51.466;7.444;2022-08-21T03:15:38;14.65;;;8.95;;
38083;SDS011;23894;51.466;7.444;2022-08-21T03:17:40;14.43;;;8.55;;
38083;SDS011;23894;51.466;7.444;2022-08-21T03:21:42;13.15;;;7.65;;
38083;SDS011;23894;51.466;7.444;2022-08-21T03:25:45;11.98;;;7.80;;
38083;SDS011;23894;51.466;7.444;2022-08-21T03:27:48;16.88;;;8.35;;
38083;SDS011;23894;51.466;7.444;2022-08-21T03:29:51;11.85;;;7.57;;
38083;SDS011;23894;51.466;7.444;2022-08-21T03:31:53;12.27;;;8.05;;
38083;SDS011;23894;51.466;7.444;2022-08-21T03:33:55;11.32;;;7.80;;
38083;SDS011;23894;51.466;7.444;2022-08-21T03:36:01;15.65;;;8.60;;
38083;SDS011;23894;51.466;7.444;2022-08-21T03:38:04;12.35;;;8.30;;
38083;SDS011;23894;51.466;7.444;2022-08-21T03:40:06;12.43;;;8.63;;
38083;SDS011;23894;51.466;7.444;2022-08-21T03:42:09;10.82;;;8.45;;
38083;SDS011;23894;51.466;7.444;2022-08-21T03:44:12;13.18;;;8.48;;
38083;SDS011;23894;51.466;7.444;2022-08-21T03:46:13;11.55;;;8.32;;
38083;SDS011;23894;51.466;7.444;2022-08-21T03:50:17;13.20;;;7.80;;
38083;SDS011;23894;51.466;7.444;2022-08-21T03:52:20;12.05;;;8.48;;
38083;SDS011;23894;51.466;7.444;2022-08-21T03:54:22;13.77;;;9.00;;
38083;SDS011;23894;51.466;7.444;2022-08-21T03:56:25;14.43;;;8.65;;
38083;SDS011;23894;51.466;7.444;2022-08-21T03:58:27;12.85;;;8.05;;
38083;SDS011;23894;51.466;7.444;2022-08-21T04:00:28;13.32;;;7.65;;
38083;SDS011;23894;51.466;7.444;2022-08-21T04:04:34;12.82;;;7.47;;
38083;SDS011;23894;51.466;7.444;2022-08-21T04:06:36;16.40;;;8.95;;
38083;SDS011;23894;51.466;7.444;2022-08-21T04:08:39;14.00;;;8.25;;
38083;SDS011;23894;51.466;7.444;2022-08-21T04:10:43;13.88;;;8.15;;
38083;SDS011;23894;51.466;7.444;2022-08-21T04:12:46;14.70;;;8.32;;
38083;SDS011;23894;51.466;7.444;2022-08-21T04:14:48;11.10;;;7.45;;
38083;SDS011;23894;51.466;7.444;2022-08-21T04:16:52;11.98;;;8.52;;
38083;SDS011;23894;51.466;7.444;2022-08-21T04:18:54;11.95;;;7.53;;
38083;SDS011;23894;51.466;7.444;2022-08-21T04:20:56;15.50;;;8.02;;
38083;SDS011;23894;51.466;7.444;2022-08-21T04:22:58;12.43;;;8.13;;
38083;SDS011;23894;51.466;7.444;2022-08-21T04:24:59;14.88;;;8.23;;
38083;SDS011;23894;51.466;7.444;2022-08-21T04:29:01;12.77;;;7.80;;
38083;SDS011;23894;51.466;7.444;2022-08-21T04:33:03;14.00;;;7.75;;
38083;SDS011;23894;51.466;7.444;2022-08-21T04:37:05;11.98;;;7.47;;
38083;SDS011;23894;51.466;7.444;2022-08-21T04:41:07;14.18;;;7.63;;
38083;SDS011;23894;51.466;7.444;2022-08-21T04:45:08;13.75;;;7.90;;
38083;SDS011;23894;51.466;7.444;2022-08-21T04:49:10;10.32;;;7.05;;
38083;SDS011;23894;51.466;7.444;2022-08-21T04:51:17;11.00;;;7.05;;
38083;SDS011;23894;51.466;7.444;2022-08-21T04:55:20;10.20;;;7.07;;
38083;SDS011;23894;51.466;7.444;2022-08-21T04:57:22;12.50;;;7.82;;
38083;SDS011;23894;51.466;7.444;2022-08-21T04:59:24;11.60;;;7.90;;
38083;SDS011;23894;51.466;7.444;2022-08-21T05:01:27;12.85;;;7.85;;
38083;SDS011;23894;51.466;7.444;2022-08-21T05:03:29;11.77;;;7.70;;
38083;SDS011;23894;51.466;7.444;2022-08-21T05:05:31;12.35;;;7.38;;
38083;SDS011;23894;51.466;7.444;2022-08-21T05:07:32;12.57;;;7.40;;
38083;SDS011;23894;51.466;7.444;2022-08-21T05:09:34;13.70;;;8.27;;
38083;SDS011;23894;51.466;7.444;2022-08-21T05:11:36;12.02;;;7.80;;
38083;SDS011;23894;51.466;7.444;2022-08-21T05:13:37;13.23;;;7.85;;
38083;SDS011;23894;51.466;7.444;2022-08-21T05:17:42;14.57;;;7.93;;
38083;SDS011;23894;51.466;7.444;2022-08-21T05:19:43;12.80;;;8.38;;
38083;SDS011;23894;51.466;7.444;2022-08-21T05:21:45;13.50;;;8.13;;
38083;SDS011;23894;51.466;7.444;2022-08-21T05:23:47;11.70;;;7.38;;
38083;SDS011;23894;51.466;7.444;2022-08-21T05:25:48;12.50;;;6.95;;
38083;SDS011;23894;51.466;7.444;2022-08-21T05:29:50;11.38;;;6.80;;
38083;SDS011;23894;51.466;7.444;2022-08-21T05:33:52;10.90;;;7.38;;
38083;SDS011;23894;51.466;7.444;2022-08-21T05:37:55;13.18;;;7.53;;
38083;SDS011;23894;51.466;7.444;2022-08-21T05:41:57;11.95;;;7.45;;
38083;SDS011;23894;51.466;7.444;2022-08-21T05:45:59;11.77;;;7.65;;
38083;SDS011;23894;51.466;7.444;2022-08-21T05:50:01;14.05;;;8.10;;
38083;SDS011;23894;51.466;7.444;2022-08-21T05:52:03;11.98;;;8.27;;
38083;SDS011;23894;51.466;7.444;2022-08-21T05:54:04;10.75;;;7.50;;
38083;SDS011;23894;51.466;7.444;2022-08-21T05:56:06;13.50;;;7.90;;
38083;SDS011;23894;51.466;7.444;2022-08-21T05:58:07;10.93;;;7.07;;
38083;SDS011;23894;51.466;7.444;2022-08-21T06:00:08;13.27;;;8.07;;
38083;SDS011;23894;51.466;7.444;2022-08-21T06:02:12;11.82;;;7.55;;
38083;SDS011;23894;51.466;7.444;2022-08-21T06:04:13;14.43;;;7.57;;
38083;SDS011;23894;51.466;7.444;2022-08-21T06:08:16;10.50;;;6.78;;
38083;SDS011;23894;51.466;7.444;2022-08-21T06:10:17;12.48;;;7.82;;
38083;SDS011;23894;51.466;7.444;2022-08-21T06:14:19;13.40;;;8.27;;
38083;SDS011;23894;51.466;7.444;2022-08-21T06:18:22;12.07;;;7.68;;
38083;SDS011;23894;51.466;7.444;2022-08-21T06:22:24;10.55;;;7.10;;
38083;SDS011;23894;51.466;7.444;2022-08-21T06:26:26;14.80;;;8.10;;
38083;SDS011;23894;51.466;7.444;2022-08-21T06:28:29;13.18;;;7.68;;
38083;SDS011;23894;51.466;7.444;2022-08-21T06:32:31;12.02;;;7.05;;
38083;SDS011;23894;51.466;7.444;2022-08-21T06:34:35;13.63;;;7.60;;
38083;SDS011;23894;51.466;7.444;2022-08-21T06:36:36;14.68;;;8.15;;
38083;SDS011;23894;51.466;7.444;2022-08-21T06:40:38;15.77;;;7.28;;
38083;SDS011;23894;51.466;7.444;2022-08-21T06:44:40;10.65;;;7.32;;
38083;SDS011;23894;51.466;7.444;2022-08-21T06:46:41;15.25;;;7.60;;
38083;SDS011;23894;51.466;7.444;2022-08-21T06:50:43;15.15;;;7.10;;
38083;SDS011;23894;51.466;7.444;2022-08-21T06:54:45;20.33;;;8.63;;
38083;SDS011;23894;51.466;7.444;2022-08-21T06:58:47;14.25;;;7.75;;
38083;SDS011;23894;51.466;7.444;2022-08-21T07:02:49;16.27;;;7.10;;
38083;SDS011;23894;51.466;7.444;2022-08-21T07:06:51;14.70;;;7.28;;
38083;SDS011;23894;51.466;7.444;2022-08-21T07:10:55;14.23;;;6.40;;
38083;SDS011;23894;51.466;7.444;2022-08-21T07:12:57;16.58;;;7.40;;
38083;SDS011;23894;51.466;7.444;2022-08-21T07:16:58;11.57;;;6.72;;
38083;SDS011;23894;51.466;7.444;2022-08-21T07:19:00;16.92;;;7.95;;
38083;SDS011;23894;51.466;7.444;2022-08-21T07:23:04;18.00;;;7.93;;
38083;SDS011;23894;51.466;7.444;2022-08-21T07:25:06;16.38;;;9.05;;
38083;SDS011;23894;51.466;7.444;2022-08-21T07:27:07;17.80;;;8.50;;
38083;SDS011;23894;51.466;7.444;2022-08-21T07:31:09;18.58;;;8.00;;
38083;SDS011;23894;51.466;7.444;2022-08-21T07:33:13;18.10;;;7.57;;
38083;SDS011;23894;51.466;7.444;2022-08-21T07:37:15;19.38;;;10.13;;
38083;SDS011;23894;51.466;7.444;2022-08-21T07:41:18;17.00;;;8.43;;
38083;SDS011;23894;51.466;7.444;2022-08-21T07:43:20;16.00;;;9.15;;
38083;SDS011;23894;51.466;7.444;2022-08-21T07:45:21;17.38;;;9.55;;
38083;SDS011;23894;51.466;7.444;2022-08-21T07:47:26;19.27;;;10.35;;
38083;SDS011;23894;51.466;7.444;2022-08-21T07:51:28;17.90;;;10.10;;
38083;SDS011;23894;51.466;7.444;2022-08-21T07:53:29;16.33;;;9.45;;
38083;SDS011;23894;51.466;7.444;2022-08-21T07:57:30;13.90;;;8.17;;
38083;SDS011;23894;51.466;7.444;2022-08-21T07:59:31;18.08;;;9.65;;
38083;SDS011;23894;51.466;7.444;2022-08-21T08:03:32;16.48;;;9.40;;
38083;SDS011;23894;51.466;7.444;2022-08-21T08:05:33;15.65;;;9.35;;
38083;SDS011;23894;51.466;7.444;2022-08-21T08:07:37;20.63;;;10.10;;
38083;SDS011;23894;51.466;7.444;2022-08-21T08:09:38;13.15;;;8.15;;
38083;SDS011;23894;51.466;7.444;2022-08-21T08:13:42;11.57;;;7.70;;
38083;SDS011;23894;51.466;7.444;2022-08-21T08:15:48;16.42;;;8.10;;
38083;SDS011;23894;51.466;7.444;2022-08-21T08:19:49;21.20;;;9.07;;
38083;SDS011;23894;51.466;7.444;2022-08-21T08:21:50;18.70;;;9.45;;
38083;SDS011;23894;51.466;7.444;2022-08-21T08:25:52;18.87;;;8.67;;
38083;SDS011;23894;51.466;7.444;2022-08-21T08:29:53;14.73;;;7.33;;
38083;SDS011;23894;51.466;7.444;2022-08-21T08:33:54;12.50;;;6.97;;
38083;SDS011;23894;51.466;7.444;2022-08-21T08:35:55;15.80;;;7.95;;
38083;SDS011;23894;51.466;7.444;2022-08-21T08:37:56;13.68;;;7.07;;
38083;SDS011;23894;51.466;7.444;2022-08-21T08:42:05;15.87;;;7.40;;
38083;SDS011;23894;51.466;7.444;2022-08-21T08:44:13;17.77;;;6.75;;
38083;SDS011;23894;51.466;7.444;2022-08-21T08:48:19;13.57;;;4.95;;
38083;SDS011;23894;51.466;7.444;2022-08-21T08:50:40;11.85;;;5.15;;
38083;SDS011;23894;51.466;7.444;2022-08-21T08:52:52;14.63;;;6.22;;
38083;SDS011;23894;51.466;7.444;2022-08-21T08:55:07;9.48;;;4.30;;
38083;SDS011;23894;51.466;7.444;2022-08-21T08:57:20;15.30;;;4.65;;
38083;SDS011;23894;51.466;7.444;2022-08-21T08:59:25;12.15;;;4.90;;
38083;SDS011;23894;51.466;7.444;2022-08-21T09:01:34;13.02;;;5.22;;
38083;SDS011;23894;51.466;7.444;2022-08-21T09:03:34;12.25;;;4.40;;
38083;SDS011;23894;51.466;7.444;2022-08-21T09:08:22;12.75;;;4.47;;
38083;SDS011;23894;51.466;7.444;2022-08-21T09:13:24;8.35;;;3.80;;
38083;SDS011;23894;51.466;7.444;2022-08-21T09:15:58;11.80;;;4.03;;
38083;SDS011;23894;51.466;7.444;2022-08-21T09:18:28;12.07;;;3.88;;
38083;SDS011;23894;51.466;7.444;2022-08-21T09:23:29;9.60;;;3.47;;
38083;SDS011;23894;51.466;7.444;2022-08-21T09:25:46;10.40;;;3.38;;
38083;SDS011;23894;51.466;7.444;2022-08-21T09:27:59;10.60;;;3.25;;
38083;SDS011;23894;51.466;7.444;2022-08-21T09:30:00;9.85;;;3.10;;
38083;SDS011;23894;51.466;7.444;2022-08-21T09:32:03;11.07;;;3.75;;
38083;SDS011;23894;51.466;7.444;2022-08-21T09:34:10;11.10;;;2.72;;
38083;SDS011;23894;51.466;7.444;2022-08-21T09:36:13;9.75;;;3.05;;
38083;SDS011;23894;51.466;7.444;2022-08-21T09:38:30;11.68;;;3.58;;
38083;SDS011;23894;51.466;7.444;2022-08-21T09:40:37;10.48;;;3.03;;
38083;SDS011;23894;51.466;7.444;2022-08-21T09:42:52;10.63;;;2.92;;
38083;SDS011;23894;51.466;7.444;2022-08-21T09:45:07;8.63;;;2.95;;
38083;SDS011;23894;51.466;7.444;2022-08-21T09:47:18;11.52;;;3.28;;
38083;SDS011;23894;51.466;7.444;2022-08-21T09:49:29;12.35;;;3.00;;
38083;SDS011;23894;51.466;7.444;2022-08-21T09:51:35;8.65;;;3.17;;
38083;SDS011;23894;51.466;7.444;2022-08-21T09:53:38;12.45;;;2.88;;
38083;SDS011;23894;51.466;7.444;2022-08-21T09:55:51;10.88;;;3.03;;
38083;SDS011;23894;51.466;7.444;2022-08-21T09:58:10;8.57;;;2.92;;
38083;SDS011;23894;51.466;7.444;2022-08-21T10:00:31;8.60;;;2.60;;
38083;SDS011;23894;51.466;7.444;2022-08-21T10:02:34;8.98;;;2.92;;
38083;SDS011;23894;51.466;7.444;2022-08-21T10:04:35;14.57;;;3.03;;
38083;SDS011;23894;51.466;7.444;2022-08-21T10:06:36;10.50;;;2.72;;
38083;SDS011;23894;51.466;7.444;2022-08-21T10:08:38;12.30;;;2.88;;
38083;SDS011;23894;51.466;7.444;2022-08-21T10:10:40;11.13;;;2.78;;
38083;SDS011;23894;51.466;7.444;2022-08-21T10:17:30;12.02;;;3.00;;
38083;SDS011;23894;51.466;7.444;2022-08-21T10:19:49;9.38;;;2.72;;
38083;SDS011;23894;51.466;7.444;2022-08-21T10:22:06;7.95;;;2.60;;
38083;SDS011;23894;51.466;7.444;2022-08-21T10:31:30;9.27;;;2.70;;
38083;SDS011;23894;51.466;7.444;2022-08-21T10:33:46;8.93;;;2.83;;
38083;SDS011;23894;51.466;7.444;2022-08-21T10:36:08;10.88;;;3.05;;
38083;SDS011;23894;51.466;7.444;2022-08-21T10:38:23;10.25;;;2.97;;
38083;SDS011;23894;51.466;7.444;2022-08-21T10:40:50;8.75;;;2.63;;
38083;SDS011;23894;51.466;7.444;2022-08-21T10:43:20;9.07;;;2.58;;
38083;SDS011;23894;51.466;7.444;2022-08-21T10:48:39;8.85;;;2.63;;
38083;SDS011;23894;51.466;7.444;2022-08-21T10:50:55;7.20;;;2.17;;
38083;SDS011;23894;51.466;7.444;2022-08-21T10:55:44;8.98;;;2.97;;
38083;SDS011;23894;51.466;7.444;2022-08-21T10:57:58;8.82;;;2.70;;
38083;SDS011;23894;51.466;7.444;2022-08-21T11:00:12;8.35;;;2.97;;
38083;SDS011;23894;51.466;7.444;2022-08-21T11:02:30;8.52;;;2.60;;
38083;SDS011;23894;51.466;7.444;2022-08-21T11:04:51;8.27;;;2.47;;
38083;SDS011;23894;51.466;7.444;2022-08-21T11:06:56;9.73;;;2.95;;
38083;SDS011;23894;51.466;7.444;2022-08-21T11:09:14;9.80;;;2.40;;
38083;SDS011;23894;51.466;7.444;2022-08-21T11:11:31;8.00;;;2.30;;
38083;SDS011;23894;51.466;7.444;2022-08-21T11:13:43;11.18;;;2.75;;
38083;SDS011;23894;51.466;7.444;2022-08-21T11:15:53;10.40;;;3.00;;
38083;SDS011;23894;51.466;7.444;2022-08-21T11:18:00;9.40;;;2.25;;
38083;SDS011;23894;51.466;7.444;2022-08-21T11:20:04;7.65;;;2.42;;
38083;SDS011;23894;51.466;7.444;2022-08-21T11:22:31;6.68;;;2.35;;
38083;SDS011;23894;51.466;7.444;2022-08-21T11:29:23;8.32;;;2.72;;
38083;SDS011;23894;51.466;7.444;2022-08-21T11:31:31;6.38;;;2.08;;
38083;SDS011;23894;51.466;7.444;2022-08-21T11:36:35;6.97;;;2.05;;
38083;SDS011;23894;51.466;7.444;2022-08-21T11:38:42;8.45;;;2.13;;
38083;SDS011;23894;51.466;7.444;2022-08-21T11:43:53;6.57;;;2.05;;
38083;SDS011;23894;51.466;7.444;2022-08-21T11:45:52;8.07;;;2.35;;
38083;SDS011;23894;51.466;7.444;2022-08-21T11:52:10;8.30;;;3.50;;
38083;SDS011;23894;51.466;7.444;2022-08-21T11:54:30;7.03;;;2.58;;
38083;SDS011;23894;51.466;7.444;2022-08-21T11:56:45;9.27;;;2.55;;
38083;SDS011;23894;51.466;7.444;2022-08-21T11:59:09;10.38;;;2.50;;
38083;SDS011;23894;51.466;7.444;2022-08-21T12:01:17;7.43;;;2.20;;
38083;SDS011;23894;51.466;7.444;2022-08-21T12:05:32;6.65;;;1.77;;
38083;SDS011;23894;51.466;7.444;2022-08-21T12:07:37;6.32;;;1.80;;
38083;SDS011;23894;51.466;7.444;2022-08-21T12:09:40;6.88;;;1.63;;
38083;SDS011;23894;51.466;7.444;2022-08-21T12:14:24;7.03;;;1.60;;
38083;SDS011;23894;51.466;7.444;2022-08-21T12:16:48;7.25;;;1.50;;
38083;SDS011;23894;51.466;7.444;2022-08-21T12:18:49;4.22;;;1.30;;
38083;SDS011;23894;51.466;7.444;2022-08-21T12:21:25;6.43;;;1.65;;
38083;SDS011;23894;51.466;7.444;2022-08-21T12:23:29;5.20;;;1.42;;
38083;SDS011;23894;51.466;7.444;2022-08-21T12:28:21;6.38;;;1.73;;
38083;SDS011;23894;51.466;7.444;2022-08-21T12:30:33;5.28;;;1.60;;
38083;SDS011;23894;51.466;7.444;2022-08-21T12:32:44;5.10;;;1.30;;
38083;SDS011;23894;51.466;7.444;2022-08-21T12:35:37;4.65;;;1.40;;
38083;SDS011;23894;51.466;7.444;2022-08-21T12:39:32;5.43;;;1.30;;
38083;SDS011;23894;51.466;7.444;2022-08-21T12:41:43;5.63;;;1.65;;
38083;SDS011;23894;51.466;7.444;2022-08-21T12:43:55;5.55;;;1.67;;
38083;SDS011;23894;51.466;7.444;2022-08-21T12:46:02;6.30;;;1.70;;
38083;SDS011;23894;51.466;7.444;2022-08-21T12:48:06;5.05;;;1.50;;
38083;SDS011;23894;51.466;7.444;2022-08-21T12:50:11;6.18;;;1.73;;
38083;SDS011;23894;51.466;7.444;2022-08-21T12:52:19;5.43;;;1.08;;
38083;SDS011;23894;51.466;7.444;2022-08-21T12:54:27;4.55;;;1.35;;
38083;SDS011;23894;51.466;7.444;2022-08-21T12:56:30;3.83;;;1.10;;
38083;SDS011;23894;51.466;7.444;2022-08-21T12:58:32;4.65;;;1.23;;
38083;SDS011;23894;51.466;7.444;2022-08-21T13:00:33;5.57;;;1.48;;
38083;SDS011;23894;51.466;7.444;2022-08-21T13:02:35;6.00;;;1.33;;
38083;SDS011;23894;51.466;7.444;2022-08-21T13:04:40;4.95;;;1.15;;
38083;SDS011;23894;51.466;7.444;2022-08-21T13:06:43;4.85;;;1.40;;
38083;SDS011;23894;51.466;7.444;2022-08-21T13:08:47;4.35;;;1.30;;
38083;SDS011;23894;51.466;7.444;2022-08-21T13:10:56;5.60;;;1.13;;
38083;SDS011;23894;51.466;7.444;2022-08-21T13:13:05;4.97;;;1.30;;
38083;SDS011;23894;51.466;7.444;2022-08-21T13:15:12;5.28;;;1.30;;
38083;SDS011;23894;51.466;7.444;2022-08-21T13:17:16;4.10;;;1.25;;
38083;SDS011;23894;51.466;7.444;2022-08-21T13:19:19;4.25;;;1.00;;
38083;SDS011;23894;51.466;7.444;2022-08-21T13:21:20;5.28;;;1.10;;
38083;SDS011;23894;51.466;7.444;2022-08-21T13:23:25;2.97;;;1.00;;
38083;SDS011;23894;51.466;7.444;2022-08-21T13:25:29;3.53;;;1.10;;
38083;SDS011;23894;51.466;7.444;2022-08-21T13:27:34;6.03;;;1.40;;
38083;SDS011;23894;51.466;7.444;2022-08-21T13:29:34;3.78;;;1.10;;
38083;SDS011;23894;51.466;7.444;2022-08-21T13:31:35;4.93;;;1.20;;
38083;SDS011;23894;51.466;7.444;2022-08-21T13:33:35;3.63;;;1.10;;
38083;SDS011;23894;51.466;7.444;2022-08-21T13:38:04;5.07;;;1.20;;
38083;SDS011;23894;51.466;7.444;2022-08-21T13:40:06;4.50;;;1.05;;
38083;SDS011;23894;51.466;7.444;2022-08-21T13:42:11;5.22;;;1.10;;
38083;SDS011;23894;51.466;7.444;2022-08-21T13:44:18;5.38;;;1.33;;
38083;SDS011;23894;51.466;7.444;2022-08-21T13:46:22;3.55;;;1.10;;
38083;SDS011;23894;51.466;7.444;2022-08-21T13:48:29;2.75;;;0.90;;
38083;SDS011;23894;51.466;7.444;2022-08-21T13:50:35;4.38;;;1.13;;
38083;SDS011;23894;51.466;7.444;2022-08-21T13:52:53;6.47;;;1.52;;
38083;SDS011;23894;51.466;7.444;2022-08-21T13:55:09;3.95;;;1.08;;
38083;SDS011;23894;51.466;7.444;2022-08-21T13:57:18;3.65;;;1.00;;
38083;SDS011;23894;51.466;7.444;2022-08-21T13:59:26;5.80;;;1.30;;
38083;SDS011;23894;51.466;7.444;2022-08-21T14:01:32;4.20;;;1.20;;
38083;SDS011;23894;51.466;7.444;2022-08-21T14:03:45;4.78;;;1.40;;
38083;SDS011;23894;51.466;7.444;2022-08-21T14:05:48;4.00;;;1.20;;
38083;SDS011;23894;51.466;7.444;2022-08-21T14:07:50;4.53;;;1.30;;
38083;SDS011;23894;51.466;7.444;2022-08-21T14:10:00;4.45;;;1.13;;
38083;SDS011;23894;51.466;7.444;2022-08-21T14:12:13;5.80;;;1.40;;
38083;SDS011;23894;51.466;7.444;2022-08-21T14:14:22;4.53;;;1.30;;
38083;SDS011;23894;51.466;7.444;2022-08-21T14:16:28;5.07;;;1.40;;
38083;SDS011;23894;51.466;7.444;2022-08-21T14:18:43;4.88;;;1.40;;
38083;SDS011;23894;51.466;7.444;2022-08-21T14:20:46;6.28;;;1.40;;
38083;SDS011;23894;51.466;7.444;2022-08-21T14:22:47;4.63;;;1.38;;
38083;SDS011;23894;51.466;7.444;2022-08-21T14:24:48;5.95;;;1.48;;
38083;SDS011;23894;51.466;7.444;2022-08-21T14:26:51;6.57;;;1.30;;
38083;SDS011;23894;51.466;7.444;2022-08-21T14:28:57;3.60;;;0.95;;
38083;SDS011;23894;51.466;7.444;2022-08-21T14:31:18;4.32;;;1.17;;
38083;SDS011;23894;51.466;7.444;2022-08-21T14:33:26;5.60;;;1.30;;
38083;SDS011;23894;51.466;7.444;2022-08-21T14:35:28;4.85;;;1.33;;
38083;SDS011;23894;51.466;7.444;2022-08-21T14:37:30;5.97;;;1.60;;
38083;SDS011;23894;51.466;7.444;2022-08-21T14:39:30;5.32;;;2.00;;
38083;SDS011;23894;51.466;7.444;2022-08-21T14:41:31;5.18;;;1.70;;
38083;SDS011;23894;51.466;7.444;2022-08-21T14:43:32;6.90;;;1.92;;
38083;SDS011;23894;51.466;7.444;2022-08-21T14:45:32;4.85;;;1.58;;
38083;SDS011;23894;51.466;7.444;2022-08-21T14:47:34;6.07;;;1.70;;
38083;SDS011;23894;51.466;7.444;2022-08-21T14:49:35;5.72;;;1.85;;
38083;SDS011;23894;51.466;7.444;2022-08-21T14:51:35;4.93;;;1.23;;
38083;SDS011;23894;51.466;7.444;2022-08-21T14:53:36;5.25;;;1.60;;
38083;SDS011;23894;51.466;7.444;2022-08-21T14:55:37;6.95;;;1.92;;
38083;SDS011;23894;51.466;7.444;2022-08-21T14:57:57;6.65;;;1.42;;
38083;SDS011;23894;51.466;7.444;2022-08-21T14:59:57;6.78;;;2.08;;
38083;SDS011;23894;51.466;7.444;2022-08-21T15:01:59;7.35;;;2.08;;
38083;SDS011;23894;51.466;7.444;2022-08-21T15:04:00;5.10;;;1.70;;
38083;SDS011;23894;51.466;7.444;2022-08-21T15:06:02;6.63;;;2.45;;
38083;SDS011;23894;51.466;7.444;2022-08-21T15:08:03;5.35;;;2.03;;
38083;SDS011;23894;51.466;7.444;2022-08-21T15:10:04;4.60;;;1.65;;
38083;SDS011;23894;51.466;7.444;2022-08-21T15:12:08;3.65;;;1.20;;
38083;SDS011;23894;51.466;7.444;2022-08-21T15:14:15;4.35;;;1.30;;
38083;SDS011;23894;51.466;7.444;2022-08-21T15:16:20;4.70;;;1.95;;
38083;SDS011;23894;51.466;7.444;2022-08-21T15:18:21;4.63;;;1.30;;
38083;SDS011;23894;51.466;7.444;2022-08-21T15:20:24;4.70;;;1.50;;
38083;SDS011;23894;51.466;7.444;2022-08-21T15:22:24;5.03;;;1.60;;
38083;SDS011;23894;51.466;7.444;2022-08-21T15:24:26;5.68;;;1.65;;
38083;SDS011;23894;51.466;7.444;2022-08-21T15:26:27;6.13;;;1.52;;
38083;SDS011;23894;51.466;7.444;2022-08-21T15:28:28;4.60;;;1.40;;
38083;SDS011;23894;51.466;7.444;2022-08-21T15:30:29;4.50;;;1.38;;
38083;SDS011;23894;51.466;7.444;2022-08-21T15:32:30;4.50;;;1.20;;
38083;SDS011;23894;51.466;7.444;2022-08-21T15:34:31;4.93;;;1.30;;
38083;SDS011;23894;51.466;7.444;2022-08-21T15:36:32;5.28;;;1.35;;
38083;SDS011;23894;51.466;7.444;2022-08-21T15:38:32;4.15;;;1.33;;
38083;SDS011;23894;51.466;7.444;2022-08-21T15:40:33;5.38;;;1.50;;
38083;SDS011;23894;51.466;7.444;2022-08-21T15:42:35;4.72;;;1.40;;
38083;SDS011;23894;51.466;7.444;2022-08-21T15:44:41;5.30;;;1.50;;
38083;SDS011;23894;51.466;7.444;2022-08-21T15:46:46;4.88;;;1.50;;
38083;SDS011;23894;51.466;7.444;2022-08-21T15:48:46;4.50;;;1.38;;
38083;SDS011;23894;51.466;7.444;2022-08-21T15:50:47;4.90;;;1.50;;
38083;SDS011;23894;51.466;7.444;2022-08-21T15:52:49;6.25;;;1.30;;